sensor_id;sensor_type;location;lat;lon;timestamp;pressure;altitude;pressure_sealevel;temperature;humidity
53506;BME280;39388;50.936;6.848;2022-12-18T00:01:41;102259.56;;;-3.63;76.54
53506;BME280;39388;50.936;6.848;2022-12-18T00:04:21;102260.81;;;-3.69;76.88
53506;BME280;39388;50.936;6.848;2022-12-18T00:06:52;102261.06;;;-3.66;76.87
53506;BME280;39388;50.936;6.848;2022-12-18T00:09:23;102261.81;;;-3.67;77.05
53506;BME280;39388;50.936;6.848;2022-12-18T00:11:53;102266.13;;;-3.66;76.36
53506;BME280;39388;50.936;6.848;2022-12-18T00:14:23;102272.56;;;-3.69;76.98
53506;BME280;39388;50.936;6.848;2022-12-18T00:16:54;102276.72;;;-3.70;77.18
53506;BME280;39388;50.936;6.848;2022-12-18T00:19:24;102282.75;;;-3.68;76.66
53506;BME280;39388;50.936;6.848;2022-12-18T00:21:54;102275.84;;;-3.70;76.87
53506;BME280;39388;50.936;6.848;2022-12-18T00:24:25;102263.41;;;-3.79;77.09
53506;BME280;39388;50.936;6.848;2022-12-18T00:26:55;102277.59;;;-3.69;76.70
53506;BME280;39388;50.936;6.848;2022-12-18T00:29:26;102275.34;;;-3.76;77.23
53506;BME280;39388;50.936;6.848;2022-12-18T00:31:56;102270.06;;;-3.79;76.93
53506;BME280;39388;50.936;6.848;2022-12-18T00:34:26;102276.34;;;-3.74;76.98
53506;BME280;39388;50.936;6.848;2022-12-18T00:36:57;102286.53;;;-3.73;76.94
53506;BME280;39388;50.936;6.848;2022-12-18T00:39:27;102290.06;;;-3.71;77.08
53506;BME280;39388;50.936;6.848;2022-12-18T00:41:58;102290.81;;;-3.72;77.03
53506;BME280;39388;50.936;6.848;2022-12-18T00:44:46;102283.28;;;-3.72;76.98
53506;BME280;39388;50.936;6.848;2022-12-18T00:47:17;102283.81;;;-3.76;76.67
53506;BME280;39388;50.936;6.848;2022-12-18T00:49:47;102287.19;;;-3.75;77.17
53506;BME280;39388;50.936;6.848;2022-12-18T00:52:18;102284.56;;;-3.77;77.13
53506;BME280;39388;50.936;6.848;2022-12-18T00:54:48;102282.66;;;-3.79;77.13
53506;BME280;39388;50.936;6.848;2022-12-18T00:57:19;102265.72;;;-3.92;77.27
53506;BME280;39388;50.936;6.848;2022-12-18T00:59:49;102273.13;;;-3.84;77.42
53506;BME280;39388;50.936;6.848;2022-12-18T01:02:19;102271.56;;;-3.82;77.37
53506;BME280;39388;50.936;6.848;2022-12-18T01:04:50;102268.84;;;-3.85;77.23
53506;BME280;39388;50.936;6.848;2022-12-18T01:07:20;102285.19;;;-3.79;77.28
53506;BME280;39388;50.936;6.848;2022-12-18T01:09:51;102272.88;;;-3.87;77.13
53506;BME280;39388;50.936;6.848;2022-12-18T01:12:21;102272.13;;;-3.86;76.93
53506;BME280;39388;50.936;6.848;2022-12-18T01:14:52;102260.53;;;-3.84;76.97
53506;BME280;39388;50.936;6.848;2022-12-18T01:17:22;102253.56;;;-3.86;77.07
53506;BME280;39388;50.936;6.848;2022-12-18T01:19:53;102258.63;;;-3.86;76.94
53506;BME280;39388;50.936;6.848;2022-12-18T01:22:23;102278.16;;;-3.84;77.19
53506;BME280;39388;50.936;6.848;2022-12-18T01:24:54;102279.28;;;-3.80;76.96
53506;BME280;39388;50.936;6.848;2022-12-18T01:27:24;102270.59;;;-3.84;77.20
53506;BME280;39388;50.936;6.848;2022-12-18T01:29:55;102262.78;;;-3.87;76.58
53506;BME280;39388;50.936;6.848;2022-12-18T01:32:25;102262.28;;;-3.83;76.66
53506;BME280;39388;50.936;6.848;2022-12-18T01:34:56;102270.59;;;-3.84;77.27
53506;BME280;39388;50.936;6.848;2022-12-18T01:37:26;102270.47;;;-3.85;77.25
53506;BME280;39388;50.936;6.848;2022-12-18T01:39:56;102262.16;;;-3.84;76.89
53506;BME280;39388;50.936;6.848;2022-12-18T01:42:27;102276.41;;;-3.85;76.94
53506;BME280;39388;50.936;6.848;2022-12-18T01:47:44;102277.78;;;-3.88;77.33
53506;BME280;39388;50.936;6.848;2022-12-18T01:53:05;102276.91;;;-3.89;76.73
53506;BME280;39388;50.936;6.848;2022-12-18T01:55:43;102271.09;;;-3.88;76.90
53506;BME280;39388;50.936;6.848;2022-12-18T01:58:14;102249.84;;;-4.02;76.63
53506;BME280;39388;50.936;6.848;2022-12-18T02:00:45;102262.84;;;-3.97;76.93
53506;BME280;39388;50.936;6.848;2022-12-18T02:03:15;102259.31;;;-3.99;76.71
53506;BME280;39388;50.936;6.848;2022-12-18T02:05:52;102274.03;;;-3.93;76.70
53506;BME280;39388;50.936;6.848;2022-12-18T02:08:57;102263.81;;;-3.95;77.02
53506;BME280;39388;50.936;6.848;2022-12-18T02:14:42;102277.66;;;-3.90;76.47
53506;BME280;39388;50.936;6.848;2022-12-18T02:17:21;102258.56;;;-3.98;76.73
53506;BME280;39388;50.936;6.848;2022-12-18T02:22:52;102270.63;;;-3.94;76.47
53506;BME280;39388;50.936;6.848;2022-12-18T02:28:23;102280.47;;;-3.97;76.76
53506;BME280;39388;50.936;6.848;2022-12-18T02:30:56;102277.81;;;-3.99;76.74
53506;BME280;39388;50.936;6.848;2022-12-18T02:33:30;102279.56;;;-3.98;76.87
53506;BME280;39388;50.936;6.848;2022-12-18T02:36:01;102262.22;;;-4.05;76.96
53506;BME280;39388;50.936;6.848;2022-12-18T02:38:33;102270.16;;;-4.00;76.91
53506;BME280;39388;50.936;6.848;2022-12-18T02:41:04;102263.75;;;-4.07;76.80
53506;BME280;39388;50.936;6.848;2022-12-18T02:43:35;102278.31;;;-4.03;76.87
53506;BME280;39388;50.936;6.848;2022-12-18T02:46:31;102277.44;;;-4.03;76.77
53506;BME280;39388;50.936;6.848;2022-12-18T02:52:05;102246.97;;;-4.06;76.46
53506;BME280;39388;50.936;6.848;2022-12-18T02:57:19;102257.56;;;-4.10;76.97
53506;BME280;39388;50.936;6.848;2022-12-18T03:00:05;102263.09;;;-4.04;76.55
53506;BME280;39388;50.936;6.848;2022-12-18T03:02:48;102262.72;;;-4.09;76.97
53506;BME280;39388;50.936;6.848;2022-12-18T03:08:42;102245.59;;;-4.13;76.71
53506;BME280;39388;50.936;6.848;2022-12-18T03:11:14;102253.91;;;-4.04;76.51
53506;BME280;39388;50.936;6.848;2022-12-18T03:13:51;102246.59;;;-4.11;76.66
53506;BME280;39388;50.936;6.848;2022-12-18T03:16:28;102263.75;;;-4.07;77.00
53506;BME280;39388;50.936;6.848;2022-12-18T03:19:06;102236.63;;;-4.09;76.84
53506;BME280;39388;50.936;6.848;2022-12-18T03:21:42;102248.72;;;-4.05;76.44
53506;BME280;39388;50.936;6.848;2022-12-18T03:24:15;102244.44;;;-4.06;76.72
53506;BME280;39388;50.936;6.848;2022-12-18T03:26:47;102241.19;;;-4.05;77.00
53506;BME280;39388;50.936;6.848;2022-12-18T03:29:23;102240.41;;;-4.04;76.73
53506;BME280;39388;50.936;6.848;2022-12-18T03:32:00;102231.09;;;-4.05;77.00
53506;BME280;39388;50.936;6.848;2022-12-18T03:34:34;102219.41;;;-4.05;76.90
53506;BME280;39388;50.936;6.848;2022-12-18T03:37:06;102238.66;;;-4.05;76.57
53506;BME280;39388;50.936;6.848;2022-12-18T03:39:37;102233.38;;;-4.08;76.59
53506;BME280;39388;50.936;6.848;2022-12-18T03:42:16;102240.06;;;-4.09;76.41
53506;BME280;39388;50.936;6.848;2022-12-18T03:47:32;102233.50;;;-4.07;76.92
53506;BME280;39388;50.936;6.848;2022-12-18T03:55:35;102222.94;;;-4.13;76.68
53506;BME280;39388;50.936;6.848;2022-12-18T03:58:07;102225.34;;;-4.15;76.79
53506;BME280;39388;50.936;6.848;2022-12-18T04:00:39;102233.66;;;-4.16;76.86
53506;BME280;39388;50.936;6.848;2022-12-18T04:03:10;102227.25;;;-4.22;76.67
53506;BME280;39388;50.936;6.848;2022-12-18T04:05:42;102224.44;;;-4.15;77.01
53506;BME280;39388;50.936;6.848;2022-12-18T04:08:14;102219.03;;;-4.20;76.95
53506;BME280;39388;50.936;6.848;2022-12-18T04:10:45;102212.25;;;-4.21;76.98
53506;BME280;39388;50.936;6.848;2022-12-18T04:13:34;102184.47;;;-4.33;76.71
53506;BME280;39388;50.936;6.848;2022-12-18T04:16:05;102215.13;;;-4.16;76.88
53506;BME280;39388;50.936;6.848;2022-12-18T04:18:36;102206.34;;;-4.21;76.35
53506;BME280;39388;50.936;6.848;2022-12-18T04:21:06;102210.00;;;-4.28;76.64
53506;BME280;39388;50.936;6.848;2022-12-18T04:23:37;102200.69;;;-4.29;76.58
53506;BME280;39388;50.936;6.848;2022-12-18T04:26:07;102211.78;;;-4.27;76.83
53506;BME280;39388;50.936;6.848;2022-12-18T04:28:38;102210.88;;;-4.28;76.39
53506;BME280;39388;50.936;6.848;2022-12-18T04:31:08;102215.06;;;-4.28;76.53
53506;BME280;39388;50.936;6.848;2022-12-18T04:33:39;102209.66;;;-4.33;76.22
53506;BME280;39388;50.936;6.848;2022-12-18T04:36:09;102207.91;;;-4.34;76.07
53506;BME280;39388;50.936;6.848;2022-12-18T04:38:40;102210.53;;;-4.32;76.71
53506;BME280;39388;50.936;6.848;2022-12-18T04:41:10;102215.94;;;-4.38;76.91
53506;BME280;39388;50.936;6.848;2022-12-18T04:43:40;102203.25;;;-4.39;76.35
53506;BME280;39388;50.936;6.848;2022-12-18T04:46:11;102198.97;;;-4.40;76.53
53506;BME280;39388;50.936;6.848;2022-12-18T04:48:41;102202.25;;;-4.41;76.28
53506;BME280;39388;50.936;6.848;2022-12-18T04:51:12;102198.72;;;-4.44;76.67
53506;BME280;39388;50.936;6.848;2022-12-18T04:53:42;102193.19;;;-4.50;76.64
53506;BME280;39388;50.936;6.848;2022-12-18T04:56:14;102204.38;;;-4.46;76.39
53506;BME280;39388;50.936;6.848;2022-12-18T04:58:45;102202.63;;;-4.47;76.86
53506;BME280;39388;50.936;6.848;2022-12-18T05:01:17;102200.72;;;-4.50;76.66
53506;BME280;39388;50.936;6.848;2022-12-18T05:03:47;102196.44;;;-4.51;76.55
53506;BME280;39388;50.936;6.848;2022-12-18T05:06:17;102192.16;;;-4.52;76.08
53506;BME280;39388;50.936;6.848;2022-12-18T05:08:48;102184.00;;;-4.49;76.46
53506;BME280;39388;50.936;6.848;2022-12-18T05:11:18;102187.03;;;-4.53;76.40
53506;BME280;39388;50.936;6.848;2022-12-18T05:13:49;102182.63;;;-4.56;76.77
53506;BME280;39388;50.936;6.848;2022-12-18T05:16:19;102184.41;;;-4.55;76.45
53506;BME280;39388;50.936;6.848;2022-12-18T05:18:49;102181.13;;;-4.54;76.50
53506;BME280;39388;50.936;6.848;2022-12-18T05:21:20;102179.38;;;-4.55;76.52
53506;BME280;39388;50.936;6.848;2022-12-18T05:23:50;102195.44;;;-4.53;76.23
53506;BME280;39388;50.936;6.848;2022-12-18T05:26:20;102180.22;;;-4.54;76.63
53506;BME280;39388;50.936;6.848;2022-12-18T05:28:51;102189.28;;;-4.56;76.50
53506;BME280;39388;50.936;6.848;2022-12-18T05:31:21;102187.31;;;-4.61;76.60
53506;BME280;39388;50.936;6.848;2022-12-18T05:33:52;102199.38;;;-4.56;76.55
53506;BME280;39388;50.936;6.848;2022-12-18T05:36:22;102193.13;;;-4.62;76.67
53506;BME280;39388;50.936;6.848;2022-12-18T05:38:52;102204.81;;;-4.62;76.43
53506;BME280;39388;50.936;6.848;2022-12-18T05:41:22;102204.44;;;-4.67;76.71
53506;BME280;39388;50.936;6.848;2022-12-18T05:43:53;102211.94;;;-4.56;76.33
53506;BME280;39388;50.936;6.848;2022-12-18T05:46:23;102211.09;;;-4.57;76.40
53506;BME280;39388;50.936;6.848;2022-12-18T05:48:54;102225.06;;;-4.61;76.64
53506;BME280;39388;50.936;6.848;2022-12-18T05:51:24;102214.53;;;-4.67;76.48
53506;BME280;39388;50.936;6.848;2022-12-18T05:53:55;102230.00;;;-4.62;76.59
53506;BME280;39388;50.936;6.848;2022-12-18T05:56:25;102230.09;;;-4.61;76.59
53506;BME280;39388;50.936;6.848;2022-12-18T05:58:55;102238.44;;;-4.62;76.89
53506;BME280;39388;50.936;6.848;2022-12-18T06:01:26;102246.84;;;-4.61;76.62
53506;BME280;39388;50.936;6.848;2022-12-18T06:03:56;102250.47;;;-4.58;76.91
53506;BME280;39388;50.936;6.848;2022-12-18T06:06:27;102243.59;;;-4.60;76.58
53506;BME280;39388;50.936;6.848;2022-12-18T06:08:58;102266.47;;;-4.57;76.69
53506;BME280;39388;50.936;6.848;2022-12-18T06:11:29;102259.66;;;-4.58;76.57
53506;BME280;39388;50.936;6.848;2022-12-18T06:13:59;102254.53;;;-4.60;76.80
53506;BME280;39388;50.936;6.848;2022-12-18T06:16:31;102242.97;;;-4.68;76.95
53506;BME280;39388;50.936;6.848;2022-12-18T06:19:04;102247.59;;;-4.62;76.72
53506;BME280;39388;50.936;6.848;2022-12-18T06:21:34;102261.53;;;-4.55;76.84
53506;BME280;39388;50.936;6.848;2022-12-18T06:24:05;102256.16;;;-4.60;76.47
53506;BME280;39388;50.936;6.848;2022-12-18T06:26:38;102260.16;;;-4.52;77.18
53506;BME280;39388;50.936;6.848;2022-12-18T06:29:09;102253.88;;;-4.57;76.74
53506;BME280;39388;50.936;6.848;2022-12-18T06:31:39;102253.13;;;-4.56;76.53
53506;BME280;39388;50.936;6.848;2022-12-18T06:34:09;102256.00;;;-4.51;76.92
53506;BME280;39388;50.936;6.848;2022-12-18T06:36:40;102239.63;;;-4.56;76.80
53506;BME280;39388;50.936;6.848;2022-12-18T06:39:10;102251.97;;;-4.49;77.12
53506;BME280;39388;50.936;6.848;2022-12-18T06:41:40;102241.28;;;-4.57;77.00
53506;BME280;39388;50.936;6.848;2022-12-18T06:44:11;102253.00;;;-4.47;77.03
53506;BME280;39388;50.936;6.848;2022-12-18T06:46:41;102239.13;;;-4.52;76.95
53506;BME280;39388;50.936;6.848;2022-12-18T06:49:12;102247.97;;;-4.47;77.03
53506;BME280;39388;50.936;6.848;2022-12-18T06:51:42;102242.91;;;-4.47;77.18
53506;BME280;39388;50.936;6.848;2022-12-18T06:54:13;102241.16;;;-4.48;77.22
53506;BME280;39388;50.936;6.848;2022-12-18T06:56:45;102241.38;;;-4.45;76.75
53506;BME280;39388;50.936;6.848;2022-12-18T06:59:16;102224.91;;;-4.52;77.10
53506;BME280;39388;50.936;6.848;2022-12-18T07:01:46;102223.28;;;-4.51;76.82
53506;BME280;39388;50.936;6.848;2022-12-18T07:04:16;102226.16;;;-4.47;77.38
53506;BME280;39388;50.936;6.848;2022-12-18T07:06:47;102232.06;;;-4.46;77.11
53506;BME280;39388;50.936;6.848;2022-12-18T07:09:17;102222.63;;;-4.49;76.64
53506;BME280;39388;50.936;6.848;2022-12-18T07:11:47;102221.78;;;-4.49;76.93
53506;BME280;39388;50.936;6.848;2022-12-18T07:14:18;102225.16;;;-4.49;77.39
53506;BME280;39388;50.936;6.848;2022-12-18T07:16:48;102218.25;;;-4.51;77.03
53506;BME280;39388;50.936;6.848;2022-12-18T07:19:19;102227.66;;;-4.49;77.29
53506;BME280;39388;50.936;6.848;2022-12-18T07:21:50;102207.09;;;-4.65;76.99
53506;BME280;39388;50.936;6.848;2022-12-18T07:24:20;102227.41;;;-4.52;76.85
53506;BME280;39388;50.936;6.848;2022-12-18T07:26:50;102202.19;;;-4.64;77.19
53506;BME280;39388;50.936;6.848;2022-12-18T07:29:21;102211.19;;;-4.55;77.18
53506;BME280;39388;50.936;6.848;2022-12-18T07:31:51;102212.19;;;-4.53;77.30
53506;BME280;39388;50.936;6.848;2022-12-18T07:34:21;102216.59;;;-4.51;76.95
53506;BME280;39388;50.936;6.848;2022-12-18T07:36:52;102211.56;;;-4.51;77.22
53506;BME280;39388;50.936;6.848;2022-12-18T07:39:22;102215.34;;;-4.46;77.27
53506;BME280;39388;50.936;6.848;2022-12-18T07:41:53;102226.53;;;-4.42;76.98
53506;BME280;39388;50.936;6.848;2022-12-18T07:44:41;102224.66;;;-4.45;77.06
53506;BME280;39388;50.936;6.848;2022-12-18T07:47:12;102220.47;;;-4.44;77.30
53506;BME280;39388;50.936;6.848;2022-12-18T07:49:42;102222.38;;;-4.41;77.10
53506;BME280;39388;50.936;6.848;2022-12-18T07:52:12;102226.38;;;-4.33;77.26
53506;BME280;39388;50.936;6.848;2022-12-18T07:54:43;102218.19;;;-4.31;77.45
53506;BME280;39388;50.936;6.848;2022-12-18T07:57:14;102225.13;;;-4.28;76.88
53506;BME280;39388;50.936;6.848;2022-12-18T07:59:45;102212.25;;;-4.21;76.89
53506;BME280;39388;50.936;6.848;2022-12-18T08:02:16;102213.38;;;-4.17;77.06
53506;BME280;39388;50.936;6.848;2022-12-18T08:04:46;102205.44;;;-4.12;77.16
53506;BME280;39388;50.936;6.848;2022-12-18T08:07:17;102193.81;;;-4.09;76.99
53506;BME280;39388;50.936;6.848;2022-12-18T08:09:47;102193.06;;;-4.08;77.03
53506;BME280;39388;50.936;6.848;2022-12-18T08:12:17;102192.78;;;-4.01;76.67
53506;BME280;39388;50.936;6.848;2022-12-18T08:14:48;102184.47;;;-4.00;77.07
53506;BME280;39388;50.936;6.848;2022-12-18T08:17:19;102186.69;;;-3.93;77.13
53506;BME280;39388;50.936;6.848;2022-12-18T08:19:50;102175.00;;;-3.92;77.22
53506;BME280;39388;50.936;6.848;2022-12-18T08:22:20;102172.16;;;-3.85;77.23
53506;BME280;39388;50.936;6.848;2022-12-18T08:24:50;102168.25;;;-3.82;76.99
53506;BME280;39388;50.936;6.848;2022-12-18T08:27:21;102171.25;;;-3.75;77.36
53506;BME280;39388;50.936;6.848;2022-12-18T08:29:51;102160.41;;;-3.74;76.73
53506;BME280;39388;50.936;6.848;2022-12-18T08:32:21;102151.44;;;-3.71;76.81
53506;BME280;39388;50.936;6.848;2022-12-18T08:34:52;102161.09;;;-3.65;76.83
53506;BME280;39388;50.936;6.848;2022-12-18T08:37:22;102163.97;;;-3.60;76.93
53506;BME280;39388;50.936;6.848;2022-12-18T08:39:52;102150.72;;;-3.58;76.50
53506;BME280;39388;50.936;6.848;2022-12-18T08:42:23;102150.31;;;-3.52;76.55
53506;BME280;39388;50.936;6.848;2022-12-18T08:45:12;102151.41;;;-3.48;76.59
53506;BME280;39388;50.936;6.848;2022-12-18T08:47:42;102150.56;;;-3.49;76.19
53506;BME280;39388;50.936;6.848;2022-12-18T08:50:12;102141.22;;;-3.50;76.28
53506;BME280;39388;50.936;6.848;2022-12-18T08:52:43;102150.22;;;-3.42;76.26
53506;BME280;39388;50.936;6.848;2022-12-18T08:55:13;102162.56;;;-3.34;76.51
53506;BME280;39388;50.936;6.848;2022-12-18T08:57:48;102157.84;;;-3.30;75.93
53506;BME280;39388;50.936;6.848;2022-12-18T09:00:18;102148.84;;;-3.26;76.39
53506;BME280;39388;50.936;6.848;2022-12-18T09:02:49;102141.09;;;-3.17;76.33
53506;BME280;39388;50.936;6.848;2022-12-18T09:05:19;102154.38;;;-3.08;75.95
53506;BME280;39388;50.936;6.848;2022-12-18T09:07:49;102148.91;;;-3.02;75.97
53506;BME280;39388;50.936;6.848;2022-12-18T09:10:20;102134.75;;;-3.00;75.39
53506;BME280;39388;50.936;6.848;2022-12-18T09:12:50;102126.56;;;-2.98;75.26
53506;BME280;39388;50.936;6.848;2022-12-18T09:15:21;102151.47;;;-2.91;75.54
53506;BME280;39388;50.936;6.848;2022-12-18T09:17:51;102156.75;;;-2.87;75.40
53506;BME280;39388;50.936;6.848;2022-12-18T09:20:23;102151.56;;;-2.89;75.14
53506;BME280;39388;50.936;6.848;2022-12-18T09:22:54;102153.69;;;-2.83;75.04
53506;BME280;39388;50.936;6.848;2022-12-18T09:25:24;102140.28;;;-2.82;75.41
53506;BME280;39388;50.936;6.848;2022-12-18T09:27:55;102132.91;;;-2.79;75.04
53506;BME280;39388;50.936;6.848;2022-12-18T09:30:26;102145.47;;;-2.69;75.26
53506;BME280;39388;50.936;6.848;2022-12-18T09:32:57;102130.63;;;-2.64;74.66
53506;BME280;39388;50.936;6.848;2022-12-18T09:35:27;102123.47;;;-2.58;74.52
53506;BME280;39388;50.936;6.848;2022-12-18T09:37:58;102122.16;;;-2.53;74.86
53506;BME280;39388;50.936;6.848;2022-12-18T09:40:34;102120.97;;;-2.46;74.31
53506;BME280;39388;50.936;6.848;2022-12-18T09:43:06;102114.47;;;-2.43;74.44
53506;BME280;39388;50.936;6.848;2022-12-18T09:45:51;102109.31;;;-2.32;74.38
53506;BME280;39388;50.936;6.848;2022-12-18T09:48:27;102095.25;;;-2.29;74.30
53506;BME280;39388;50.936;6.848;2022-12-18T09:51:02;102089.59;;;-2.24;73.96
53506;BME280;39388;50.936;6.848;2022-12-18T09:53:37;102092.78;;;-2.15;74.18
53506;BME280;39388;50.936;6.848;2022-12-18T09:56:12;102096.31;;;-2.13;73.58
53506;BME280;39388;50.936;6.848;2022-12-18T09:58:59;102103.19;;;-1.99;73.51
53506;BME280;39388;50.936;6.848;2022-12-18T10:01:30;102095.91;;;-1.94;73.79
53506;BME280;39388;50.936;6.848;2022-12-18T10:04:02;102080.38;;;-1.87;73.32
53506;BME280;39388;50.936;6.848;2022-12-18T10:06:42;102090.03;;;-1.81;73.40
53506;BME280;39388;50.936;6.848;2022-12-18T10:14:46;102072.69;;;-1.63;72.87
53506;BME280;39388;50.936;6.848;2022-12-18T10:18:03;102072.31;;;-1.56;72.84
53506;BME280;39388;50.936;6.848;2022-12-18T10:20:46;102058.44;;;-1.49;72.75
53506;BME280;39388;50.936;6.848;2022-12-18T10:23:33;102070.72;;;-1.42;72.52
53506;BME280;39388;50.936;6.848;2022-12-18T10:26:10;102066.63;;;-1.40;72.50
53506;BME280;39388;50.936;6.848;2022-12-18T10:28:43;102073.75;;;-1.34;72.31
53506;BME280;39388;50.936;6.848;2022-12-18T10:31:19;102078.22;;;-1.30;71.94
53506;BME280;39388;50.936;6.848;2022-12-18T10:33:49;102068.50;;;-1.24;71.96
53506;BME280;39388;50.936;6.848;2022-12-18T10:36:20;102067.16;;;-1.18;72.05
53506;BME280;39388;50.936;6.848;2022-12-18T10:38:50;102039.59;;;-1.27;71.84
53506;BME280;39388;50.936;6.848;2022-12-18T10:44:23;102053.91;;;-1.01;71.48
53506;BME280;39388;50.936;6.848;2022-12-18T10:47:02;102050.81;;;-0.97;71.48
53506;BME280;39388;50.936;6.848;2022-12-18T10:49:34;102049.34;;;-0.93;71.92
53506;BME280;39388;50.936;6.848;2022-12-18T10:52:18;102038.84;;;-0.86;71.73
53506;BME280;39388;50.936;6.848;2022-12-18T10:54:55;102039.97;;;-0.81;71.35
53506;BME280;39388;50.936;6.848;2022-12-18T10:57:39;102037.75;;;-0.76;71.01
53506;BME280;39388;50.936;6.848;2022-12-18T11:00:29;102030.31;;;-0.73;70.85
53506;BME280;39388;50.936;6.848;2022-12-18T11:03:00;102026.25;;;-0.71;70.29
53506;BME280;39388;50.936;6.848;2022-12-18T11:05:32;102026.25;;;-0.71;70.23
53506;BME280;39388;50.936;6.848;2022-12-18T11:08:04;102016.31;;;-0.68;70.20
53506;BME280;39388;50.936;6.848;2022-12-18T11:10:36;102020.28;;;-0.58;70.36
53506;BME280;39388;50.936;6.848;2022-12-18T11:13:25;102021.16;;;-0.57;70.46
53506;BME280;39388;50.936;6.848;2022-12-18T11:15:56;102022.13;;;-0.55;70.40
53506;BME280;39388;50.936;6.848;2022-12-18T11:18:30;102032.84;;;-0.46;70.46
53506;BME280;39388;50.936;6.848;2022-12-18T11:21:09;102030.41;;;-0.45;70.26
53506;BME280;39388;50.936;6.848;2022-12-18T11:23:50;102027.09;;;-0.43;70.41
53506;BME280;39388;50.936;6.848;2022-12-18T11:26:20;102023.06;;;-0.40;70.11
53506;BME280;39388;50.936;6.848;2022-12-18T11:29:16;102008.25;;;-0.34;69.92
53506;BME280;39388;50.936;6.848;2022-12-18T11:31:47;102007.53;;;-0.31;69.37
53506;BME280;39388;50.936;6.848;2022-12-18T11:34:28;101991.56;;;-0.30;69.60
53506;BME280;39388;50.936;6.848;2022-12-18T11:37:02;101994.94;;;-0.30;69.83
53506;BME280;39388;50.936;6.848;2022-12-18T11:39:44;101994.38;;;-0.25;69.67
53506;BME280;39388;50.936;6.848;2022-12-18T11:45:27;101990.06;;;-0.26;69.42
53506;BME280;39388;50.936;6.848;2022-12-18T11:48:03;101984.31;;;-0.24;69.17
53506;BME280;39388;50.936;6.848;2022-12-18T11:53:12;101974.34;;;-0.21;69.07
53506;BME280;39388;50.936;6.848;2022-12-18T11:56:04;101962.84;;;-0.16;68.61
53506;BME280;39388;50.936;6.848;2022-12-18T12:27:20;101947.38;;;-0.05;68.24
53506;BME280;39388;50.936;6.848;2022-12-18T12:35:53;101949.66;;;-0.10;68.61
53506;BME280;39388;50.936;6.848;2022-12-18T12:38:30;101953.59;;;-0.00;68.22
53506;BME280;39388;50.936;6.848;2022-12-18T12:41:06;101945.09;;;-0.01;68.32
53506;BME280;39388;50.936;6.848;2022-12-18T12:44:02;101938.38;;;-0.00;68.59
53506;BME280;39388;50.936;6.848;2022-12-18T12:46:38;101931.56;;;-0.01;68.48
53506;BME280;39388;50.936;6.848;2022-12-18T12:49:15;101937.78;;;0.04;68.56
53506;BME280;39388;50.936;6.848;2022-12-18T12:51:55;101942.22;;;0.08;68.67
53506;BME280;39388;50.936;6.848;2022-12-18T12:54:27;101927.78;;;0.07;68.29
53506;BME280;39388;50.936;6.848;2022-12-18T12:57:13;101934.97;;;0.14;68.86
53506;BME280;39388;50.936;6.848;2022-12-18T13:05:40;101937.69;;;0.17;68.73
53506;BME280;39388;50.936;6.848;2022-12-18T13:08:23;101947.31;;;0.23;68.71
53506;BME280;39388;50.936;6.848;2022-12-18T13:10:55;101948.28;;;0.25;68.79
53506;BME280;39388;50.936;6.848;2022-12-18T13:13:53;101935.59;;;0.25;68.34
53506;BME280;39388;50.936;6.848;2022-12-18T13:16:25;101936.38;;;0.24;68.81
53506;BME280;39388;50.936;6.848;2022-12-18T13:18:57;101933.06;;;0.25;68.74
53506;BME280;39388;50.936;6.848;2022-12-18T13:21:30;101935.50;;;0.24;68.67
53506;BME280;39388;50.936;6.848;2022-12-18T13:24:24;101923.09;;;0.13;68.10
53506;BME280;39388;50.936;6.848;2022-12-18T13:26:55;101930.25;;;0.21;68.58
53506;BME280;39388;50.936;6.848;2022-12-18T13:29:44;101933.66;;;0.21;68.61
53506;BME280;39388;50.936;6.848;2022-12-18T13:32:23;101937.97;;;0.22;68.58
53506;BME280;39388;50.936;6.848;2022-12-18T13:51:31;101897.25;;;0.21;68.69
53506;BME280;39388;50.936;6.848;2022-12-18T13:56:45;101885.13;;;0.15;68.33
53506;BME280;39388;50.936;6.848;2022-12-18T14:01:53;101883.47;;;0.15;67.90
53506;BME280;39388;50.936;6.848;2022-12-18T14:04:26;101886.88;;;0.16;68.76
53506;BME280;39388;50.936;6.848;2022-12-18T14:07:11;101880.81;;;0.14;68.34
53506;BME280;39388;50.936;6.848;2022-12-18T14:09:44;101886.69;;;0.13;68.20
53506;BME280;39388;50.936;6.848;2022-12-18T14:12:20;101882.41;;;0.12;67.81
53506;BME280;39388;50.936;6.848;2022-12-18T14:15:34;101875.44;;;0.08;68.18
53506;BME280;39388;50.936;6.848;2022-12-18T14:18:23;101866.66;;;0.02;68.18
53506;BME280;39388;50.936;6.848;2022-12-18T14:20:57;101864.66;;;-0.03;68.10
53506;BME280;39388;50.936;6.848;2022-12-18T14:23:33;101867.38;;;-0.00;68.88
53506;BME280;39388;50.936;6.848;2022-12-18T14:26:27;101869.22;;;0.02;68.83
53506;BME280;39388;50.936;6.848;2022-12-18T14:29:01;101860.88;;;0.05;68.71
53506;BME280;39388;50.936;6.848;2022-12-18T14:32:13;101860.88;;;0.05;68.21
53506;BME280;39388;50.936;6.848;2022-12-18T14:34:51;101854.16;;;0.06;68.25
53506;BME280;39388;50.936;6.848;2022-12-18T14:37:25;101838.00;;;0.04;68.26
53506;BME280;39388;50.936;6.848;2022-12-18T14:39:58;101840.44;;;0.02;68.64
53506;BME280;39388;50.936;6.848;2022-12-18T14:42:29;101841.78;;;-0.05;68.17
53506;BME280;39388;50.936;6.848;2022-12-18T14:45:42;101829.09;;;-0.05;68.28
53506;BME280;39388;50.936;6.848;2022-12-18T14:48:22;101833.09;;;-0.08;68.43
53506;BME280;39388;50.936;6.848;2022-12-18T14:50:58;101835.47;;;-0.11;68.30
53506;BME280;39388;50.936;6.848;2022-12-18T14:53:51;101838.88;;;-0.11;68.45
53506;BME280;39388;50.936;6.848;2022-12-18T14:56:24;101833.03;;;-0.10;68.67
53506;BME280;39388;50.936;6.848;2022-12-18T14:58:58;101829.69;;;-0.09;68.72
53506;BME280;39388;50.936;6.848;2022-12-18T15:01:32;101837.84;;;-0.15;67.70
53506;BME280;39388;50.936;6.848;2022-12-18T15:04:05;101843.94;;;-0.11;68.51
53506;BME280;39388;50.936;6.848;2022-12-18T15:06:37;101826.97;;;-0.12;68.32
53506;BME280;39388;50.936;6.848;2022-12-18T15:09:23;101824.13;;;-0.18;68.09
53506;BME280;39388;50.936;6.848;2022-12-18T15:11:59;101829.78;;;-0.22;67.99
53506;BME280;39388;50.936;6.848;2022-12-18T15:14:31;101826.53;;;-0.20;67.94